Kotoka International Airport

METAR DGAA TAF DGAA
26 °C
°C
-
°C
1h
Wiek
06:12:30
LT
05:12
UTC
0 ft

1.000

2.000

3.000

4.000

5.000

VFR
<?= Yii::t('app', 'Wind direction') ?> <?= Yii::t('app', 'of'); ?>
270°
06:17
Wschód słońca
89%
Wilgotność
Siła wiatru
Zamknięte/Śnieg
Zasięg wzroku na RWY
Stan RWY
Widzialność pionowa
Min. widoczność
CAVOK
Trend
Korekta
Raport specjalny
1009 hPa
QNH
METAR DGAA 010400Z 27007KT CAVOK 26/24 Q1009 NOSIG
Niebo czyste
7 kt
7 kt
05:00
MVFR
7 kt
06:00
MVFR
7 kt
07:00
MVFR
7 kt
08:00
MVFR
7 kt
09:00
VFR
7 kt
10:00
VFR
12 kt
11:00
VFR
12 kt
10 km+
Widoczność
Brak
Sufit
7 kt
Wiatr
metar-taf.com/DGAA

Metar-Taf.com

Dekoder wizualny

My i strony trzecie śledzimy Twoje zachowanie internetowe na naszej stronie za pomocą plików cookie. Jeśli kontynuujesz, zakładamy, że zgadzasz się z naszymi polityka plików cookie.